Time;durP1;ratioP1;P1;durP2;ratioP2;P2;SDS_P1;SDS_P2;PMS_P1;PMS_P2;Temp;Humidity;BMP_temperature;BMP_pressure;BME280_temperature;BME280_humidity;BME280_pressure;Samples;Min_cycle;Max_cycle;Signal;HPM_P1;HPM_P2
2022/03/10 00:01:50;;;;;;;60.10;24.85;;;0.10;69.30;;;;;;6275522;22;20024;-82
2022/03/10 00:04:38;;;;;;;55.38;25.13;;;0.00;69.80;;;;;;6254195;22;20115;-82
2022/03/10 00:07:25;;;;;;;48.28;23.65;;;-0.10;70.50;;;;;;6230801;22;20430;-82
2022/03/10 00:10:12;;;;;;;52.25;24.23;;;-0.10;71.30;;;;;;6252300;22;20034;-82
2022/03/10 00:13:00;;;;;;;50.33;23.55;;;-0.10;71.30;;;;;;6273435;22;20046;-81
2022/03/10 00:15:47;;;;;;;58.20;24.17;;;-0.10;71.50;;;;;;6276113;22;20020;-82
2022/03/10 00:18:35;;;;;;;49.63;23.50;;;-0.10;72.10;;;;;;6252679;22;20029;-82
2022/03/10 00:21:22;;;;;;;50.42;23.58;;;-0.10;71.80;;;;;;6275838;22;20034;-81
2022/03/10 00:24:09;;;;;;;47.15;22.80;;;-0.10;72.20;;;;;;6256422;22;20020;-82
2022/03/10 00:26:59;;;;;;;53.10;24.02;;;-0.10;72.20;;;;;;6274209;22;20024;-82
2022/03/10 00:29:46;;;;;;;53.47;23.25;;;-0.10;72.60;;;;;;6275711;22;20280;-81
2022/03/10 00:32:41;;;;;;;46.75;22.83;;;-0.10;73.80;;;;;;6277748;22;20085;-83
2022/03/10 00:35:29;;;;;;;50.22;23.15;;;-0.20;73.10;;;;;;6252228;22;20034;-82
2022/03/10 00:38:16;;;;;;;47.35;21.02;;;-0.20;72.60;;;;;;6275088;22;20068;-82
2022/03/10 00:41:04;;;;;;;53.00;21.83;;;-0.20;72.90;;;;;;6253252;22;20082;-82
2022/03/10 00:43:52;;;;;;;46.38;21.83;;;-0.30;73.70;;;;;;6274729;22;20050;-81
2022/03/10 00:46:39;;;;;;;48.58;22.27;;;-0.30;74.80;;;;;;6275607;22;20124;-83
2022/03/10 00:49:26;;;;;;;64.30;27.25;;;-0.40;75.40;;;;;;6277196;22;20032;-83
2022/03/10 00:52:13;;;;;;;53.70;23.92;;;-0.40;75.10;;;;;;6276885;22;20034;-82
2022/03/10 00:55:00;;;;;;;59.88;26.98;;;-0.40;75.70;;;;;;6277712;22;20327;-83
2022/03/10 00:57:49;;;;;;;60.20;24.83;;;-0.40;75.80;;;;;;6277452;22;20023;-83
2022/03/10 01:00:36;;;;;;;55.65;25.48;;;-0.50;78.30;;;;;;6277643;22;20023;-83
2022/03/10 01:03:24;;;;;;;51.17;23.83;;;-0.40;78.50;;;;;;6278481;22;20366;-83
2022/03/10 01:06:11;;;;;;;49.85;22.92;;;-0.40;76.90;;;;;;6277298;22;20423;-84
2022/03/10 01:09:01;;;;;;;52.53;23.95;;;-0.40;78.10;;;;;;6277228;22;20059;-84
2022/03/10 01:11:51;;;;;;;53.20;23.42;;;-0.50;76.30;;;;;;6278270;22;20134;-84
2022/03/10 01:14:38;;;;;;;50.20;23.70;;;-0.60;77.00;;;;;;6277844;22;20038;-84
2022/03/10 01:17:28;;;;;;;56.65;24.98;;;-0.70;79.50;;;;;;6275906;22;20021;-84
2022/03/10 01:20:24;;;;;;;56.38;23.67;;;-0.70;79.80;;;;;;6277319;22;20035;-82
2022/03/10 01:23:12;;;;;;;51.97;24.38;;;-0.70;80.90;;;;;;6276903;22;20024;-82
2022/03/10 01:26:02;;;;;;;56.83;23.75;;;-0.70;80.50;;;;;;6255156;22;20023;-82
2022/03/10 01:29:01;;;;;;;53.75;24.02;;;-0.70;80.50;;;;;;6257048;22;20043;-82
2022/03/10 01:31:51;;;;;;;49.08;23.05;;;-0.70;81.40;;;;;;6255289;22;20055;-83
2022/03/10 01:34:41;;;;;;;49.95;23.90;;;-0.80;83.00;;;;;;6257680;22;20032;-82
2022/03/10 01:37:29;;;;;;;54.35;24.52;;;-0.80;84.50;;;;;;6277645;22;20047;-82
2022/03/10 01:40:17;;;;;;;52.28;24.15;;;-0.80;85.30;;;;;;6277428;22;20436;-83
2022/03/10 01:43:04;;;;;;;48.45;22.52;;;-0.90;86.70;;;;;;6278597;22;20039;-83
2022/03/10 01:45:52;;;;;;;54.10;24.17;;;-0.90;86.60;;;;;;6276408;22;20123;-83
2022/03/10 01:48:39;;;;;;;48.78;23.60;;;-0.90;89.40;;;;;;6253304;22;20035;-83
2022/03/10 01:51:26;;;;;;;46.58;21.60;;;-0.90;90.10;;;;;;6272584;22;20085;-81
2022/03/10 01:54:13;;;;;;;47.17;19.27;;;-0.90;90.70;;;;;;6253877;22;20378;-81
2022/03/10 01:57:14;;;;;;;43.72;20.20;;;-0.80;90.80;;;;;;6276938;22;20077;-82
2022/03/10 02:00:16;;;;;;;46.05;20.45;;;-0.80;91.40;;;;;;6258849;22;20023;-84
2022/03/10 02:03:03;;;;;;;38.63;19.05;;;-0.80;90.40;;;;;;6256937;22;20627;-82
2022/03/10 02:05:53;;;;;;;44.28;19.92;;;-0.70;86.90;;;;;;6255033;22;20098;-83
2022/03/10 02:11:52;;;;;;;40.03;19.17;;;-0.80;86.30;;;;;;6277266;22;20020;-82
2022/03/10 02:17:48;;;;;;;42.80;19.25;;;-0.90;83.20;;;;;;6277400;22;20027;-81
2022/03/10 02:20:38;;;;;;;43.35;19.77;;;-0.80;82.10;;;;;;6280722;22;20093;-81
2022/03/10 02:23:27;;;;;;;48.97;20.92;;;-0.90;82.20;;;;;;6264035;22;20042;-81
2022/03/10 02:26:15;;;;;;;39.75;19.90;;;-1.00;84.00;;;;;;6291296;22;20039;-81
2022/03/10 02:29:02;;;;;;;41.17;19.35;;;-1.10;87.50;;;;;;6258898;22;20024;-82
2022/03/10 02:31:54;;;;;;;43.97;20.52;;;-1.20;91.00;;;;;;6278924;22;20027;-84
2022/03/10 02:34:44;;;;;;;42.97;19.83;;;-1.30;92.30;;;;;;6277720;22;20039;-82
2022/03/10 02:37:38;;;;;;;47.30;20.27;;;-1.40;93.60;;;;;;6254907;22;20019;-83
2022/03/10 02:40:43;;;;;;;42.70;20.17;;;-1.40;93.30;;;;;;6255505;22;20109;-82
2022/03/10 02:43:45;;;;;;;45.90;19.88;;;-1.40;93.10;;;;;;6273377;22;20023;-82
2022/03/10 02:46:32;;;;;;;44.90;21.92;;;-1.50;92.90;;;;;;6292558;22;20024;-81
2022/03/10 02:49:20;;;;;;;44.33;21.35;;;-1.60;92.90;;;;;;6271326;22;20038;-81
2022/03/10 02:52:14;;;;;;;43.53;20.75;;;-1.50;92.80;;;;;;6270301;22;20081;-81
2022/03/10 02:55:04;;;;;;;47.72;20.13;;;-1.50;92.40;;;;;;6289263;22;20027;-82
2022/03/10 02:57:51;;;;;;;43.22;20.35;;;-1.60;95.00;;;;;;6290303;22;20057;-81
2022/03/10 03:00:39;;;;;;;41.45;19.90;;;-1.60;94.40;;;;;;6289858;22;20586;-85
2022/03/10 03:03:26;;;;;;;45.05;20.73;;;-1.60;93.40;;;;;;6270558;22;20034;-83
2022/03/10 03:06:13;;;;;;;42.10;20.25;;;-1.60;94.30;;;;;;6293330;22;20020;-81
2022/03/10 03:09:03;;;;;;;44.03;20.63;;;-1.60;94.80;;;;;;6269337;22;20023;-83
2022/03/10 03:11:51;;;;;;;47.50;21.75;;;-1.60;94.60;;;;;;6270143;22;20020;-83
2022/03/10 03:14:40;;;;;;;45.33;20.50;;;-1.70;94.80;;;;;;6294695;22;20012;-83
2022/03/10 03:17:28;;;;;;;47.80;20.48;;;-1.70;96.80;;;;;;6269788;22;20085;-83
2022/03/10 03:20:15;;;;;;;44.97;20.80;;;-1.70;98.20;;;;;;6298647;22;20079;-82
2022/03/10 03:23:03;;;;;;;39.03;19.08;;;-1.70;96.80;;;;;;6271979;22;20032;-81
2022/03/10 03:25:59;;;;;;;45.85;18.98;;;-1.70;96.90;;;;;;6246744;22;20031;-84
2022/03/10 03:28:46;;;;;;;42.58;20.30;;;-1.70;98.00;;;;;;6271222;22;20063;-82
2022/03/10 03:31:34;;;;;;;42.72;20.52;;;-1.80;98.90;;;;;;6269311;22;20008;-81
2022/03/10 03:34:21;;;;;;;41.05;20.05;;;-1.90;99.50;;;;;;6270376;22;20019;-82
2022/03/10 03:37:10;;;;;;;43.30;19.15;;;-1.90;99.90;;;;;;6267816;22;20064;-83
2022/03/10 03:40:00;;;;;;;43.70;20.77;;;-2.00;99.90;;;;;;6256415;22;20066;-83
2022/03/10 03:42:48;;;;;;;44.88;21.42;;;-2.10;99.90;;;;;;6266510;22;20016;-84
2022/03/10 03:50:52;;;;;;;44.15;20.42;;;-2.20;99.90;;;;;;6245369;22;20067;-83
2022/03/10 03:53:39;;;;;;;41.58;19.90;;;-2.20;99.90;;;;;;6248570;22;20086;-83
2022/03/10 03:56:26;;;;;;;45.63;20.13;;;-2.20;99.90;;;;;;6269152;23;20028;-85
2022/03/10 03:59:14;;;;;;;50.20;19.98;;;-2.20;99.90;;;;;;6264892;22;20100;-85
2022/03/10 04:02:03;;;;;;;42.15;19.98;;;-2.30;99.90;;;;;;6238754;23;20039;-83
2022/03/10 04:04:53;;;;;;;44.22;19.75;;;-2.30;99.90;;;;;;6244739;22;20032;-82
2022/03/10 04:07:42;;;;;;;41.00;19.30;;;-2.30;99.90;;;;;;6266935;22;20083;-81
2022/03/10 04:10:30;;;;;;;41.83;19.27;;;-2.30;99.90;;;;;;6289070;22;20027;-83
2022/03/10 04:13:17;;;;;;;39.50;19.63;;;-2.30;99.90;;;;;;6265179;22;20028;-83
2022/03/10 04:16:06;;;;;;;41.78;20.55;;;-2.30;99.90;;;;;;6291099;22;20032;-84
2022/03/10 04:18:55;;;;;;;42.75;18.33;;;-2.30;99.90;;;;;;6273277;22;20054;-82
2022/03/10 04:21:42;;;;;;;40.55;19.13;;;-2.40;99.90;;;;;;6277547;22;20042;-82
2022/03/10 04:24:29;;;;;;;41.83;19.60;;;-2.40;99.90;;;;;;6254142;22;20057;-84
2022/03/10 04:29:58;;;;;;;42.42;19.10;;;-2.30;99.90;;;;;;6265830;22;20012;-83
2022/03/10 04:32:46;;;;;;;46.45;20.75;;;-2.30;99.90;;;;;;6269847;22;20068;-83
2022/03/10 04:35:33;;;;;;;43.22;20.20;;;-2.30;99.90;;;;;;6265235;22;20031;-83
2022/03/10 04:38:21;;;;;;;47.08;20.67;;;-2.20;99.90;;;;;;6243809;23;20082;-84
2022/03/10 04:41:08;;;;;;;44.25;19.83;;;-2.20;99.90;;;;;;6266207;23;20038;-83
2022/03/10 04:43:55;;;;;;;39.35;19.20;;;-2.20;99.90;;;;;;6265040;23;20020;-84
2022/03/10 04:46:47;;;;;;;44.75;20.10;;;-2.10;99.90;;;;;;6243523;23;20019;-83
2022/03/10 04:49:37;;;;;;;43.08;20.92;;;-2.10;99.90;;;;;;6265151;23;20036;-83
2022/03/10 04:52:28;;;;;;;47.10;20.70;;;-2.10;99.90;;;;;;6263037;23;20024;-83
2022/03/10 04:55:16;;;;;;;47.15;21.73;;;-2.20;99.90;;;;;;6260249;23;20031;-82
2022/03/10 04:58:08;;;;;;;39.60;19.85;;;-2.30;96.90;;;;;;6229049;23;20132;-83
2022/03/10 05:00:55;;;;;;;44.28;21.15;;;-2.30;99.90;;;;;;6216403;23;20028;-82
2022/03/10 05:03:45;;;;;;;45.28;20.00;;;-2.40;72.60;;;;;;6257964;22;20031;-83
2022/03/10 05:06:32;;;;;;;38.33;20.45;;;-2.40;48.60;;;;;;6248968;23;20032;-84
2022/03/10 05:27:25;;;;;;;47.97;20.92;;;-2.50;1.00;;;;;;6242343;23;20055;-84
2022/03/10 05:30:14;;;;;;;51.15;20.23;;;-2.60;1.00;;;;;;6242534;22;20040;-82
2022/03/10 05:33:01;;;;;;;45.67;20.27;;;-2.60;1.00;;;;;;6261547;22;20039;-82
2022/03/10 05:35:48;;;;;;;48.90;21.02;;;-2.60;76.80;;;;;;6281672;22;20038;-90
2022/03/10 05:38:36;;;;;;;45.17;20.38;;;-2.60;99.90;;;;;;6261414;22;20143;-90
2022/03/10 05:41:27;;;;;;;43.88;20.80;;;-2.70;1.00;;;;;;6261156;22;20466;-89
2022/03/10 05:44:14;;;;;;;51.78;23.40;;;-2.50;1.00;;;;;;6282919;22;20078;-88
2022/03/10 05:47:02;;;;;;;47.63;21.80;;;-2.50;1.00;;;;;;6283744;22;20024;-88
2022/03/10 05:49:52;;;;;;;60.80;21.60;;;-2.50;99.90;;;;;;6287674;22;20046;-89
2022/03/10 05:52:41;;;;;;;47.42;22.00;;;-2.50;24.00;;;;;;6271734;22;20024;-90
2022/03/10 05:55:34;;;;;;;51.28;22.48;;;-2.60;1.00;;;;;;6284875;22;20081;-89
2022/03/10 05:58:22;;;;;;;53.22;21.92;;;-2.60;1.00;;;;;;6286516;22;20028;-88
2022/03/10 06:01:13;;;;;;;47.22;21.80;;;-2.50;99.90;;;;;;6287377;22;20024;-89
2022/03/10 06:04:04;;;;;;;50.15;22.90;;;-2.50;99.90;;;;;;6271468;22;20023;-89
2022/03/10 06:06:55;;;;;;;50.70;22.10;;;-2.50;99.90;;;;;;6249746;22;20089;-88
2022/03/10 06:09:43;;;;;;;46.67;20.42;;;-2.40;99.90;;;;;;6265042;22;20027;-91
2022/03/10 06:12:32;;;;;;;48.97;21.77;;;-2.40;99.90;;;;;;6282095;22;20098;-89
2022/03/10 06:15:20;;;;;;;48.70;21.75;;;-2.40;99.90;;;;;;6282647;22;20023;-89
2022/03/10 06:18:10;;;;;;;53.30;21.85;;;-2.30;99.90;;;;;;6266294;22;20086;-88
2022/03/10 06:20:58;;;;;;;56.70;22.70;;;-2.30;99.90;;;;;;6292145;22;20068;-91
2022/03/10 06:23:45;;;;;;;55.78;23.45;;;-2.30;99.90;;;;;;6268973;22;20038;-91
2022/03/10 06:26:33;;;;;;;43.10;22.20;;;-2.30;99.90;;;;;;6293928;22;20023;-90
2022/03/10 06:29:20;;;;;;;50.45;24.13;;;-2.20;88.10;;;;;;6296443;22;20031;-84
2022/03/10 06:32:18;;;;;;;50.67;24.52;;;-2.20;1.00;;;;;;6297975;22;20074;-88
2022/03/10 06:35:06;;;;;;;49.80;21.83;;;-2.20;1.00;;;;;;6276987;22;20011;-87
2022/03/10 06:37:53;;;;;;;48.88;22.35;;;-2.20;1.00;;;;;;6298329;22;20145;-91
2022/03/10 06:40:42;;;;;;;55.78;24.15;;;-2.10;1.00;;;;;;6289803;22;20103;-88
2022/03/10 06:43:35;;;;;;;49.22;22.85;;;-2.00;1.00;;;;;;6289760;22;20042;-91
2022/03/10 06:46:22;;;;;;;48.78;22.83;;;-1.80;1.00;;;;;;6290329;22;20034;-91
2022/03/10 06:49:10;;;;;;;46.97;21.60;;;-1.30;99.90;;;;;;6258015;22;20533;-89
2022/03/10 06:52:01;;;;;;;61.33;26.80;;;-0.40;99.90;;;;;;6282849;22;20057;-90
2022/03/10 06:54:49;;;;;;;82.15;40.63;;;0.60;1.00;;;;;;6257586;22;20027;-91
2022/03/10 06:57:43;;;;;;;64.15;33.70;;;1.50;1.00;;;;;;6257623;22;20077;-92
2022/03/10 07:00:32;;;;;;;59.17;30.67;;;2.40;85.50;;;;;;6258130;22;20023;-90
2022/03/10 07:03:21;;;;;;;50.00;28.90;;;3.30;93.00;;;;;;6260589;22;20023;-89
2022/03/10 07:06:09;;;;;;;43.72;25.77;;;4.00;86.10;;;;;;6284649;22;20019;-90
2022/03/10 07:08:58;;;;;;;45.25;25.67;;;4.60;78.30;;;;;;6264416;22;20062;-90
2022/03/10 07:11:46;;;;;;;45.22;25.33;;;5.20;73.00;;;;;;6283419;22;20138;-89
2022/03/10 07:14:33;;;;;;;40.45;23.63;;;5.50;70.00;;;;;;6285960;22;20023;-91
2022/03/10 07:17:20;;;;;;;40.03;23.38;;;6.00;66.90;;;;;;6257350;22;20031;-88
2022/03/10 07:20:08;;;;;;;43.80;24.83;;;6.20;63.90;;;;;;6286886;22;20023;-89
2022/03/10 07:22:55;;;;;;;47.00;24.38;;;5.90;64.40;;;;;;6263739;22;20411;-88
2022/03/10 07:25:43;;;;;;;44.03;24.77;;;5.30;65.40;;;;;;6283839;22;20024;-89
2022/03/10 07:28:33;;;;;;;42.65;23.73;;;4.90;66.80;;;;;;6281900;22;20027;-85
2022/03/10 07:31:20;;;;;;;43.03;24.23;;;4.80;67.50;;;;;;6284011;22;20303;-89
2022/03/10 07:34:10;;;;;;;38.95;22.50;;;5.20;66.90;;;;;;6284072;22;20075;-88
2022/03/10 07:37:02;;;;;;;43.92;22.70;;;5.90;66.00;;;;;;6259939;22;20364;-90
2022/03/10 07:39:49;;;;;;;42.90;23.83;;;6.40;63.80;;;;;;6280507;22;20035;-89
2022/03/10 07:42:36;;;;;;;43.28;22.83;;;7.10;63.50;;;;;;6257853;22;20039;-90
2022/03/10 07:45:25;;;;;;;36.55;22.30;;;7.70;60.20;;;;;;6257159;22;20028;-91
2022/03/10 07:48:17;;;;;;;36.20;20.70;;;8.50;56.80;;;;;;6282864;22;20111;-90
2022/03/10 07:51:05;;;;;;;36.17;19.83;;;9.20;55.00;;;;;;6262368;22;20023;-90
2022/03/10 07:53:57;;;;;;;31.38;19.50;;;10.00;53.00;;;;;;6284599;22;20334;-93
2022/03/10 07:56:47;;;;;;;43.92;21.48;;;10.00;50.90;;;;;;6284502;22;20024;-91
2022/03/10 07:59:37;;;;;;;40.38;22.75;;;10.10;50.70;;;;;;6291475;22;20023;-91
2022/03/10 08:02:24;;;;;;;39.85;23.08;;;10.20;52.10;;;;;;6268783;22;20039;-90
2022/03/10 08:05:12;;;;;;;38.28;23.10;;;10.30;52.20;;;;;;6271593;22;20423;-88
2022/03/10 08:08:03;;;;;;;37.80;23.15;;;10.00;51.70;;;;;;6285608;22;20023;-90
2022/03/10 08:10:50;;;;;;;39.95;21.98;;;10.20;52.40;;;;;;6282528;22;20050;-90
2022/03/10 08:13:40;;;;;;;31.33;18.30;;;10.80;52.50;;;;;;6260256;22;20034;-90
2022/03/10 08:17:09;;;;;;;26.25;16.38;;;11.40;49.20;;;;;;6287828;22;20049;-92
2022/03/10 08:20:27;;;;;;;24.83;14.77;;;12.10;46.40;;;;;;6260736;22;20058;-91
2022/03/10 08:23:18;;;;;;;27.95;16.08;;;12.40;46.50;;;;;;6255598;22;20023;-90
2022/03/10 08:26:08;;;;;;;24.17;15.05;;;13.00;45.20;;;;;;6285773;22;20055;-90
2022/03/10 08:28:59;;;;;;;23.13;13.93;;;13.60;42.20;;;;;;6290984;22;20038;-90
2022/03/10 08:31:47;;;;;;;22.02;14.25;;;13.90;41.90;;;;;;6290215;22;20027;-90
2022/03/10 08:34:36;;;;;;;25.63;13.20;;;14.80;41.20;;;;;;6258992;22;20415;-91
2022/03/10 08:37:26;;;;;;;14.82;10.20;;;15.00;38.70;;;;;;6262820;22;20072;-90
2022/03/10 08:40:19;;;;;;;18.52;12.18;;;14.70;38.80;;;;;;6282139;22;20030;-90
2022/03/10 08:43:12;;;;;;;15.38;10.23;;;14.50;39.10;;;;;;6265635;22;20024;-90
2022/03/10 08:46:02;;;;;;;19.33;11.43;;;14.50;39.00;;;;;;6281521;22;20057;-91
2022/03/10 08:48:50;;;;;;;14.90;9.75;;;14.50;39.30;;;;;;6258187;22;20016;-89
2022/03/10 08:51:40;;;;;;;15.00;10.65;;;14.40;38.80;;;;;;6254624;22;20105;-89
2022/03/10 08:54:28;;;;;;;16.92;9.73;;;14.40;38.60;;;;;;6273755;22;20334;-87
2022/03/10 08:57:18;;;;;;;16.80;10.77;;;13.90;39.70;;;;;;6234316;22;20028;-89
2022/03/10 09:00:34;;;;;;;19.45;11.13;;;13.50;40.30;;;;;;6279937;22;20027;-92
2022/03/10 09:03:25;;;;;;;19.80;12.32;;;13.60;40.80;;;;;;6257598;22;20019;-91
2022/03/10 09:06:14;;;;;;;22.33;10.90;;;13.60;40.90;;;;;;6276514;22;20019;-89
2022/03/10 09:09:04;;;;;;;17.50;10.77;;;13.60;40.30;;;;;;6258617;22;20054;-90
2022/03/10 09:11:52;;;;;;;16.95;11.60;;;14.10;39.10;;;;;;6280624;22;20019;-89
2022/03/10 09:14:39;;;;;;;15.68;10.93;;;14.50;38.30;;;;;;6262619;22;20109;-92
2022/03/10 09:17:36;;;;;;;13.02;9.65;;;15.10;37.70;;;;;;6260173;22;20089;-89
2022/03/10 09:27:09;;;;;;;14.63;9.88;;;14.30;39.40;;;;;;6254823;22;20055;-90
2022/03/10 09:29:58;;;;;;;16.00;10.80;;;15.10;38.50;;;;;;6248437;23;20028;-91
2022/03/10 09:32:47;;;;;;;16.67;10.85;;;16.10;37.70;;;;;;6227929;23;20020;-92
2022/03/10 09:35:37;;;;;;;16.98;10.65;;;16.30;36.50;;;;;;6248885;23;20292;-89
2022/03/10 09:38:25;;;;;;;14.40;9.77;;;17.10;36.00;;;;;;6227974;23;20087;-92
2022/03/10 09:41:21;;;;;;;13.55;9.25;;;17.30;34.70;;;;;;6253374;23;20031;-91
2022/03/10 09:44:16;;;;;;;13.27;9.88;;;17.30;34.90;;;;;;6227855;23;20008;-91
2022/03/10 09:47:04;;;;;;;18.50;10.05;;;17.00;35.40;;;;;;6250735;23;20032;-90
2022/03/10 09:49:55;;;;;;;15.98;10.65;;;17.10;35.50;;;;;;6245627;23;20032;-88
2022/03/10 09:55:18;;;;;;;14.10;9.57;;;17.60;34.80;;;;;;6169195;22;20117;-84
2022/03/10 09:58:07;;;;;;;15.98;8.77;;;17.20;35.60;;;;;;6261290;22;20058;-83
2022/03/10 10:01:03;;;;;;;13.48;9.02;;;17.10;35.80;;;;;;6242023;22;20025;-84
2022/03/10 10:03:50;;;;;;;14.80;9.55;;;17.40;36.10;;;;;;6222991;22;20100;-85
2022/03/10 10:07:05;;;;;;;13.40;8.98;;;16.60;36.30;;;;;;6221303;23;20029;-84
2022/03/10 10:22:19;;;;;;;12.02;8.15;;;18.60;33.10;;;;;;6215027;23;20008;-86
2022/03/10 10:25:09;;;;;;;13.15;7.75;;;17.70;34.10;;;;;;6216398;23;20033;-85
2022/03/10 10:28:01;;;;;;;17.20;7.90;;;17.40;34.20;;;;;;6215906;23;20084;-85
2022/03/10 10:31:19;;;;;;;10.93;7.05;;;18.10;33.30;;;;;;6217390;23;20032;-84
2022/03/10 10:34:10;;;;;;;10.55;7.47;;;18.10;32.60;;;;;;6214450;23;20137;-87
2022/03/10 10:36:57;;;;;;;10.10;7.43;;;18.70;33.00;;;;;;6194627;23;20098;-86
2022/03/10 10:39:56;;;;;;;14.00;7.95;;;18.00;33.00;;;;;;6214781;23;20024;-87
2022/03/10 10:42:44;;;;;;;11.93;7.10;;;18.20;33.20;;;;;;6195635;23;20025;-85
2022/03/10 10:45:34;;;;;;;13.32;6.10;;;18.20;32.50;;;;;;6193814;23;20028;-84
2022/03/10 10:48:24;;;;;;;11.32;6.22;;;18.70;33.10;;;;;;6211733;23;20028;-84
2022/03/10 10:51:13;;;;;;;11.38;7.47;;;19.20;32.00;;;;;;6216158;23;20024;-87
2022/03/10 10:54:03;;;;;;;10.20;6.05;;;19.70;31.00;;;;;;6214749;23;20044;-86
2022/03/10 10:57:02;;;;;;;11.07;6.68;;;19.60;30.20;;;;;;6197356;23;20028;-86
2022/03/10 11:00:09;;;;;;;8.95;6.00;;;19.80;31.10;;;;;;6196310;23;20033;-85
2022/03/10 11:02:58;;;;;;;7.65;5.72;;;19.30;30.40;;;;;;6248903;23;20024;-87
2022/03/10 11:05:47;;;;;;;7.30;4.85;;;19.50;30.00;;;;;;6225514;23;20020;-85
2022/03/10 11:08:43;;;;;;;9.43;5.00;;;19.00;30.80;;;;;;6247577;23;20082;-85
2022/03/10 11:11:31;;;;;;;6.05;4.35;;;18.90;30.60;;;;;;6277276;22;20410;-86
2022/03/10 11:14:20;;;;;;;9.73;4.75;;;18.90;30.70;;;;;;6251878;22;20051;-84
2022/03/10 11:17:08;;;;;;;6.47;4.70;;;19.10;30.20;;;;;;6270153;22;20054;-85
2022/03/10 11:19:59;;;;;;;8.95;4.93;;;18.90;31.00;;;;;;6253096;22;20171;-85
2022/03/10 11:23:08;;;;;;;6.93;4.43;;;18.50;31.00;;;;;;6273803;22;20039;-85
2022/03/10 11:26:19;;;;;;;8.82;4.55;;;18.60;31.00;;;;;;6277756;22;20042;-84
2022/03/10 11:29:09;;;;;;;7.63;4.55;;;18.90;30.40;;;;;;6224251;22;20023;-85
2022/03/10 11:31:57;;;;;;;7.35;4.30;;;19.00;30.20;;;;;;6277318;22;20020;-85
2022/03/10 11:34:54;;;;;;;6.15;4.53;;;19.30;29.20;;;;;;6254358;22;20024;-87
2022/03/10 11:37:44;;;;;;;8.48;4.25;;;19.70;29.60;;;;;;6255632;22;20107;-87
2022/03/10 11:40:56;;;;;;;7.78;4.47;;;20.90;29.20;;;;;;6257506;22;20126;-87
2022/03/10 11:43:58;;;;;;;6.63;4.90;;;20.50;28.00;;;;;;6276900;22;20221;-87
2022/03/10 11:47:00;;;;;;;6.32;4.85;;;20.10;28.60;;;;;;6278460;22;20034;-86
2022/03/10 11:49:49;;;;;;;6.47;4.90;;;20.70;28.90;;;;;;6279637;22;20034;-85
2022/03/10 11:52:42;;;;;;;10.57;3.97;;;21.80;26.20;;;;;;6258099;22;20027;-86
2022/03/10 11:55:53;;;;;;;10.98;3.80;;;22.00;26.30;;;;;;6291735;22;20038;-88
2022/03/10 11:58:41;;;;;;;6.95;3.90;;;21.00;26.70;;;;;;6267730;22;20054;-91
2022/03/10 12:01:43;;;;;;;4.90;3.50;;;20.30;27.60;;;;;;6261683;22;20050;-89
2022/03/10 12:04:40;;;;;;;5.53;3.20;;;19.40;28.40;;;;;;6268789;22;20023;-90
2022/03/10 12:07:44;;;;;;;;;;;;;;;;;;;;;
2022/03/10 12:10:50;;;;;;;4.22;2.97;;;21.70;27.10;;;;;;6292693;22;20023;-91
2022/03/10 12:14:18;;;;;;;5.60;2.15;;;23.20;25.10;;;;;;6288497;22;20042;-93
2022/03/10 12:17:57;;;;;;;4.28;2.95;;;22.90;23.80;;;;;;6257904;22;20038;-91
2022/03/10 12:21:48;;;;;;;3.67;2.45;;;20.60;25.30;;;;;;6269706;22;20420;-90
2022/03/10 12:24:35;;;;;;;5.03;2.70;;;19.90;26.50;;;;;;6289325;22;20075;-89
2022/03/10 12:27:28;;;;;;;3.88;2.90;;;20.80;26.20;;;;;;6264619;22;20023;-91
2022/03/10 12:30:30;;;;;;;3.33;3.03;;;21.50;24.60;;;;;;6293151;22;20035;-90
2022/03/10 12:33:19;;;;;;;3.88;2.85;;;21.70;25.20;;;;;;6290248;22;20038;-90
2022/03/10 12:36:16;;;;;;;3.65;2.70;;;21.20;25.10;;;;;;6292920;22;20027;-90
2022/03/10 12:39:13;;;;;;;2.97;2.50;;;21.10;25.10;;;;;;6296492;22;20030;-89
2022/03/10 12:42:13;;;;;;;4.55;3.08;;;20.70;25.70;;;;;;6268589;22;20453;-89
2022/03/10 12:45:09;;;;;;;6.05;3.10;;;20.20;26.30;;;;;;6264604;22;20081;-90
2022/03/10 12:48:05;;;;;;;2.80;2.40;;;20.70;25.10;;;;;;6287198;22;20031;-89
2022/03/10 12:54:10;;;;;;;4.20;2.38;;;21.70;24.30;;;;;;6286686;22;20024;-88
2022/03/10 12:57:09;;;;;;;2.50;2.30;;;21.50;24.40;;;;;;6290107;22;20024;-89
2022/03/10 13:00:00;;;;;;;5.68;2.75;;;21.60;24.40;;;;;;6292833;22;20034;-89
2022/03/10 13:02:57;;;;;;;7.22;2.60;;;21.80;25.00;;;;;;6271016;22;20020;-89
2022/03/10 13:05:47;;;;;;;4.13;2.40;;;22.60;23.10;;;;;;6263961;22;20438;-88
2022/03/10 13:08:40;;;;;;;6.10;2.88;;;21.80;24.10;;;;;;6264166;22;20031;-89
2022/03/10 13:11:30;;;;;;;3.70;2.50;;;21.70;24.20;;;;;;6278294;22;20038;-91
2022/03/10 13:14:20;;;;;;;4.05;2.25;;;22.10;23.00;;;;;;6257149;22;20020;-89
2022/03/10 13:17:08;;;;;;;3.80;2.90;;;21.70;23.80;;;;;;6266991;22;20028;-89
2022/03/10 13:19:57;;;;;;;6.60;2.63;;;22.00;23.90;;;;;;6266490;22;20015;-90
2022/03/10 13:23:05;;;;;;;3.13;2.83;;;22.00;24.40;;;;;;6288027;22;20024;-89
2022/03/10 13:25:55;;;;;;;4.40;3.28;;;21.80;24.60;;;;;;6284417;22;20023;-88
2022/03/10 13:28:47;;;;;;;6.40;2.78;;;21.90;24.00;;;;;;6283331;22;20028;-88
2022/03/10 13:31:37;;;;;;;3.67;3.00;;;21.60;24.80;;;;;;6281395;22;20119;-91
2022/03/10 13:34:28;;;;;;;3.33;2.50;;;21.10;25.50;;;;;;6286690;22;20028;-91
2022/03/10 13:37:17;;;;;;;8.07;3.05;;;21.30;24.80;;;;;;6245321;22;20020;-91
2022/03/10 13:40:05;;;;;;;4.97;2.75;;;21.30;24.90;;;;;;6287328;22;20027;-90
2022/03/10 13:42:56;;;;;;;4.00;2.85;;;20.70;25.50;;;;;;6290033;22;20019;-91
2022/03/10 13:45:44;;;;;;;6.32;3.10;;;21.00;25.20;;;;;;6288802;22;20023;-91
2022/03/10 13:48:35;;;;;;;4.63;2.97;;;21.20;24.20;;;;;;6292673;22;20038;-89
2022/03/10 13:51:27;;;;;;;8.15;3.15;;;22.70;24.00;;;;;;6273939;22;20063;-90
2022/03/10 13:54:19;;;;;;;4.38;3.40;;;22.10;23.20;;;;;;6291034;22;20038;-90
2022/03/10 13:57:14;;;;;;;6.25;4.05;;;21.80;24.10;;;;;;6296348;22;20028;-91
2022/03/10 14:00:07;;;;;;;5.90;4.05;;;22.20;23.10;;;;;;6298136;22;20038;-90
2022/03/10 14:02:57;;;;;;;5.45;3.70;;;21.30;24.10;;;;;;6278038;22;20023;-85
2022/03/10 14:06:03;;;;;;;5.18;3.90;;;21.00;25.10;;;;;;6281255;22;20064;-85
2022/03/10 14:08:59;;;;;;;5.60;3.78;;;20.60;25.10;;;;;;6278651;22;20015;-88
2022/03/10 14:11:56;;;;;;;5.18;3.65;;;20.80;24.70;;;;;;6273979;22;20075;-89
2022/03/10 14:14:47;;;;;;;5.20;3.47;;;21.60;23.80;;;;;;6255697;22;20028;-91
2022/03/10 14:17:42;;;;;;;5.45;3.85;;;21.60;24.40;;;;;;6276747;22;20037;-91
2022/03/10 14:20:50;;;;;;;8.13;4.35;;;22.40;22.80;;;;;;6295958;22;20169;-91
2022/03/10 14:24:07;;;;;;;5.05;3.72;;;22.70;22.70;;;;;;6266881;22;20054;-87
2022/03/10 14:27:14;;;;;;;7.63;4.00;;;22.00;23.40;;;;;;6245591;22;20019;-89
2022/03/10 14:30:08;;;;;;;8.50;4.68;;;20.90;24.60;;;;;;6266866;22;20020;-88
2022/03/10 14:33:00;;;;;;;9.50;5.05;;;20.20;25.40;;;;;;6285017;22;20019;-91
2022/03/10 14:35:48;;;;;;;10.48;4.38;;;20.20;25.00;;;;;;6284049;22;20409;-89
2022/03/10 14:38:44;;;;;;;7.32;4.78;;;20.30;25.00;;;;;;6266266;22;20030;-92
2022/03/10 14:41:35;;;;;;;8.52;5.00;;;20.90;24.70;;;;;;6284780;22;20024;-89
2022/03/10 14:44:23;;;;;;;5.68;4.75;;;21.30;24.50;;;;;;6281229;22;20068;-88
2022/03/10 14:47:10;;;;;;;7.35;5.38;;;20.30;25.10;;;;;;6281581;22;20123;-89
2022/03/10 14:49:59;;;;;;;8.23;5.20;;;20.00;25.50;;;;;;6282324;22;20058;-84
2022/03/10 14:52:47;;;;;;;6.72;4.93;;;19.70;25.80;;;;;;6284416;22;20027;-90
2022/03/10 14:55:36;;;;;;;6.05;4.97;;;19.30;25.90;;;;;;6285568;22;20058;-92
2022/03/10 14:58:29;;;;;;;6.72;5.20;;;20.20;25.40;;;;;;6284599;22;20038;-90
2022/03/10 15:01:17;;;;;;;5.93;4.55;;;20.50;24.70;;;;;;6264472;22;20067;-89
2022/03/10 15:04:06;;;;;;;11.13;5.43;;;21.00;24.70;;;;;;6288879;22;20071;-89
2022/03/10 15:06:57;;;;;;;8.52;4.68;;;20.80;24.30;;;;;;6286295;22;20089;-89
2022/03/10 15:09:57;;;;;;;8.23;4.57;;;20.30;24.70;;;;;;6289049;22;20129;-89
2022/03/10 15:12:51;;;;;;;11.25;5.47;;;20.40;24.70;;;;;;6285184;22;20027;-87
2022/03/10 15:15:38;;;;;;;9.05;4.55;;;20.20;25.00;;;;;;6287420;22;20031;-87
2022/03/10 15:18:26;;;;;;;10.73;5.78;;;19.80;25.40;;;;;;6266468;22;20028;-87
2022/03/10 15:21:20;;;;;;;7.80;4.80;;;19.70;25.40;;;;;;6290999;22;20077;-86
2022/03/10 15:24:10;;;;;;;9.10;5.55;;;19.70;25.10;;;;;;6265103;22;20023;-85
2022/03/10 15:27:02;;;;;;;8.70;5.18;;;19.50;25.50;;;;;;6287918;22;20031;-89
2022/03/10 15:29:50;;;;;;;10.52;5.32;;;18.60;26.10;;;;;;6268257;22;20380;-88
2022/03/10 15:32:41;;;;;;;7.95;5.28;;;18.10;26.50;;;;;;6288875;22;20027;-89
2022/03/10 15:35:28;;;;;;;8.45;5.50;;;17.90;26.90;;;;;;6266279;22;20027;-86
2022/03/10 15:38:19;;;;;;;8.88;5.15;;;18.10;27.30;;;;;;6287541;22;20023;-85